Time;durP1;ratioP1;P1;durP2;ratioP2;P2;SDS_P1;SDS_P2;PMS_P1;PMS_P2;Temp;Humidity;BMP_temperature;BMP_pressure;BME280_temperature;BME280_humidity;BME280_pressure;Samples;Min_cycle;Max_cycle;Signal;HPM_P1;HPM_P2
2022/10/19 00:00:25;;;;;;;20.25;7.85;;;16.80;99.90;;;;;;5095260;28;20102;-80
2022/10/19 00:02:51;;;;;;;13.80;6.85;;;16.80;99.90;;;;;;5081316;28;20465;-79
2022/10/19 00:05:17;;;;;;;16.52;6.78;;;16.80;99.90;;;;;;5076199;28;20480;-79
2022/10/19 00:07:42;;;;;;;15.82;6.53;;;16.80;99.90;;;;;;5091139;28;20031;-79
2022/10/19 00:10:09;;;;;;;13.68;6.72;;;16.80;99.90;;;;;;5082893;28;20028;-80
2022/10/19 00:12:34;;;;;;;18.20;7.05;;;16.70;99.90;;;;;;5095702;28;20031;-80
2022/10/19 00:15:00;;;;;;;16.25;7.38;;;16.70;99.90;;;;;;5095557;28;20028;-79
2022/10/19 00:17:26;;;;;;;14.68;7.43;;;16.70;99.90;;;;;;5094937;28;20047;-79
2022/10/19 00:19:51;;;;;;;18.48;6.88;;;16.70;99.90;;;;;;5097317;28;20024;-80
2022/10/19 00:22:17;;;;;;;13.93;6.65;;;16.70;99.90;;;;;;5099378;28;20023;-79
2022/10/19 00:24:43;;;;;;;45.80;8.38;;;16.70;99.90;;;;;;5086122;28;20035;-79
2022/10/19 00:27:09;;;;;;;17.52;7.78;;;16.70;99.90;;;;;;5078360;28;20055;-85
2022/10/19 00:29:34;;;;;;;21.83;8.30;;;16.70;99.90;;;;;;5097082;28;20103;-79
2022/10/19 00:32:00;;;;;;;48.20;9.82;;;16.70;99.90;;;;;;5086067;28;20114;-79
2022/10/19 00:34:25;;;;;;;19.77;7.72;;;16.60;99.90;;;;;;5088002;28;20114;-79
2022/10/19 00:36:51;;;;;;;18.33;8.05;;;16.70;99.90;;;;;;5093511;28;20027;-79
2022/10/19 00:39:17;;;;;;;20.60;8.57;;;16.60;99.90;;;;;;5098754;28;20020;-79
2022/10/19 00:41:45;;;;;;;23.27;8.57;;;16.60;99.90;;;;;;5099144;28;20027;-79
2022/10/19 00:44:10;;;;;;;27.20;8.80;;;16.60;99.90;;;;;;5098545;28;20494;-81
2022/10/19 00:46:38;;;;;;;22.67;8.70;;;16.70;99.90;;;;;;5099312;28;20020;-79
2022/10/19 00:49:09;;;;;;;23.23;8.77;;;16.60;99.90;;;;;;5099322;28;20035;-79
2022/10/19 00:51:38;;;;;;;24.52;8.63;;;16.60;99.90;;;;;;5117395;28;20069;-79
2022/10/19 00:54:05;;;;;;;15.02;7.80;;;16.60;99.90;;;;;;5109012;28;20046;-79
2022/10/19 00:56:32;;;;;;;26.00;8.68;;;16.60;99.90;;;;;;5096274;28;20118;-79
2022/10/19 00:58:57;;;;;;;19.80;8.20;;;16.70;99.90;;;;;;5078835;28;20083;-80
2022/10/19 01:01:26;;;;;;;17.25;8.80;;;16.70;99.90;;;;;;5078355;28;20461;-80
2022/10/19 01:03:51;;;;;;;21.80;8.70;;;16.70;99.90;;;;;;5078558;28;20028;-80
2022/10/19 01:06:17;;;;;;;17.10;8.30;;;16.70;99.90;;;;;;5105078;28;20030;-79
2022/10/19 01:08:43;;;;;;;15.52;8.38;;;16.70;99.90;;;;;;5116723;28;20026;-80
2022/10/19 01:11:26;;;;;;;14.25;7.97;;;16.70;99.90;;;;;;5098724;28;20023;-83
2022/10/19 01:14:04;;;;;;;15.02;8.25;;;16.70;99.90;;;;;;5110921;28;20032;-79
2022/10/19 01:16:56;;;;;;;18.58;8.60;;;16.70;99.90;;;;;;5078026;28;20020;-79
2022/10/19 01:19:24;;;;;;;;;;;16.60;99.90;;;;;;5080046;28;20123;-80
2022/10/19 01:22:06;;;;;;;15.30;8.00;;;16.70;99.90;;;;;;5080795;28;20341;-80
2022/10/19 01:24:45;;;;;;;15.48;8.45;;;16.60;99.90;;;;;;5078129;28;20028;-80
2022/10/19 01:27:17;;;;;;;19.25;9.43;;;16.60;99.90;;;;;;5078240;28;20138;-84
2022/10/19 01:30:07;;;;;;;24.25;9.10;;;16.60;99.90;;;;;;5078430;28;20043;-80
2022/10/19 01:32:48;;;;;;;15.90;8.40;;;16.60;99.90;;;;;;5077900;28;20483;-80
2022/10/19 01:35:28;;;;;;;21.90;8.90;;;16.60;99.90;;;;;;5112768;28;20026;-80
2022/10/19 01:38:02;;;;;;;13.68;7.88;;;16.50;99.90;;;;;;5098312;28;20031;-80
2022/10/19 01:40:49;;;;;;;15.23;7.97;;;16.50;99.90;;;;;;5086394;28;20027;-80
2022/10/19 01:43:42;;;;;;;15.70;8.40;;;16.50;99.90;;;;;;5077597;28;20047;-80
2022/10/19 01:46:25;;;;;;;12.52;7.15;;;16.60;99.90;;;;;;5078068;28;20074;-79
2022/10/19 01:49:07;;;;;;;14.82;7.90;;;16.60;99.90;;;;;;5078364;28;20043;-80
2022/10/19 01:51:41;;;;;;;13.38;7.55;;;16.60;99.90;;;;;;5093334;28;20162;-79
2022/10/19 01:54:11;;;;;;;14.45;7.38;;;16.60;99.90;;;;;;5088217;28;20500;-79
2022/10/19 01:56:41;;;;;;;15.13;7.50;;;16.50;99.90;;;;;;5077879;28;20024;-80
2022/10/19 01:59:09;;;;;;;10.82;6.80;;;16.60;99.90;;;;;;5077828;28;20032;-79
2022/10/19 02:01:38;;;;;;;12.27;6.85;;;16.60;99.90;;;;;;5077555;28;20082;-79
2022/10/19 02:04:04;;;;;;;10.68;6.65;;;16.50;99.90;;;;;;5077578;28;20024;-79
2022/10/19 02:06:30;;;;;;;11.57;6.13;;;16.50;99.90;;;;;;5077280;28;20027;-78
2022/10/19 02:08:55;;;;;;;9.38;6.15;;;16.50;99.90;;;;;;5077660;28;20023;-79
2022/10/19 02:11:22;;;;;;;8.73;6.30;;;16.50;99.90;;;;;;5095028;28;20024;-79
2022/10/19 02:13:57;;;;;;;10.30;6.00;;;16.50;99.90;;;;;;5077657;28;20028;-79
2022/10/19 02:16:33;;;;;;;8.40;5.63;;;16.40;99.90;;;;;;5076776;28;20024;-79
2022/10/19 02:19:00;;;;;;;7.85;5.60;;;16.50;99.90;;;;;;5095483;28;20024;-79
2022/10/19 02:21:27;;;;;;;9.38;5.32;;;16.40;99.90;;;;;;5076685;28;20024;-79
2022/10/19 02:23:53;;;;;;;8.07;5.38;;;16.40;99.90;;;;;;5077145;28;20123;-79
2022/10/19 02:26:20;;;;;;;8.82;5.40;;;16.40;99.90;;;;;;5076494;28;20139;-80
2022/10/19 02:28:46;;;;;;;9.35;5.78;;;16.40;99.90;;;;;;5077358;28;20073;-79
2022/10/19 02:31:12;;;;;;;10.57;5.35;;;16.40;99.90;;;;;;5077165;28;20031;-82
2022/10/19 02:33:38;;;;;;;8.93;5.60;;;16.40;99.90;;;;;;5076836;28;20469;-80
2022/10/19 02:36:04;;;;;;;10.70;5.93;;;16.50;99.90;;;;;;5077097;28;20073;-80
2022/10/19 02:38:30;;;;;;;12.02;6.57;;;16.40;99.90;;;;;;5076565;28;20020;-79
2022/10/19 02:41:07;;;;;;;9.80;5.88;;;16.40;99.90;;;;;;5076834;28;20350;-79
2022/10/19 02:43:36;;;;;;;12.25;6.75;;;16.50;99.90;;;;;;5075754;28;20051;-79
2022/10/19 02:46:31;;;;;;;14.23;7.10;;;16.50;99.90;;;;;;5076585;28;20062;-79
2022/10/19 02:48:58;;;;;;;10.57;6.88;;;16.50;99.90;;;;;;5072242;28;20043;-79
2022/10/19 02:51:38;;;;;;;12.13;7.28;;;16.50;99.90;;;;;;5087920;28;20020;-79
2022/10/19 02:54:05;;;;;;;13.75;7.13;;;16.50;99.90;;;;;;5076659;28;20035;-80
2022/10/19 02:56:32;;;;;;;11.10;7.07;;;16.50;99.90;;;;;;5076300;28;20032;-79
2022/10/19 02:58:57;;;;;;;12.52;7.35;;;16.40;99.90;;;;;;5094725;28;20024;-79
2022/10/19 03:01:23;;;;;;;11.20;6.57;;;16.40;99.90;;;;;;5075594;28;20063;-79
2022/10/19 03:03:49;;;;;;;11.90;6.70;;;16.40;99.90;;;;;;5076281;28;20032;-79
2022/10/19 03:06:14;;;;;;;9.95;6.72;;;16.50;99.90;;;;;;5076535;28;20077;-82
2022/10/19 03:08:40;;;;;;;10.98;6.72;;;16.40;99.90;;;;;;5076238;28;20024;-79
2022/10/19 03:11:06;;;;;;;12.85;6.05;;;16.40;99.90;;;;;;5076388;28;20032;-79
2022/10/19 03:13:32;;;;;;;11.98;6.55;;;16.40;99.90;;;;;;5075918;28;20036;-79
2022/10/19 03:15:57;;;;;;;11.25;6.47;;;16.40;99.90;;;;;;5076454;28;20028;-79
2022/10/19 03:18:23;;;;;;;9.80;6.38;;;16.30;99.90;;;;;;5075758;28;20024;-79
2022/10/19 03:20:48;;;;;;;13.70;7.22;;;16.40;99.90;;;;;;5094210;28;20445;-80
2022/10/19 03:23:14;;;;;;;10.77;6.50;;;16.30;99.90;;;;;;5076416;28;20039;-82
2022/10/19 03:25:39;;;;;;;18.58;7.70;;;16.30;99.90;;;;;;5075814;28;20342;-80
2022/10/19 03:28:05;;;;;;;12.93;6.88;;;16.40;99.90;;;;;;5094454;28;20079;-80
2022/10/19 03:30:30;;;;;;;14.30;7.45;;;16.30;99.90;;;;;;5075504;28;20062;-79
2022/10/19 03:32:56;;;;;;;16.05;8.35;;;16.30;99.90;;;;;;5076129;28;20033;-79
2022/10/19 03:35:21;;;;;;;12.13;7.10;;;16.30;99.90;;;;;;5075724;28;20491;-79
2022/10/19 03:37:47;;;;;;;15.50;7.72;;;16.30;99.90;;;;;;5076092;28;20036;-79
2022/10/19 03:40:13;;;;;;;15.48;7.32;;;16.30;99.90;;;;;;5075978;28;20107;-78
2022/10/19 03:42:38;;;;;;;13.27;8.10;;;16.30;99.90;;;;;;5093190;28;20016;-79
2022/10/19 03:45:04;;;;;;;13.00;7.43;;;16.30;99.90;;;;;;5075852;28;20073;-79
2022/10/19 03:47:30;;;;;;;15.80;8.18;;;16.30;99.90;;;;;;5075287;28;20028;-79
2022/10/19 03:49:55;;;;;;;16.00;8.77;;;16.30;99.90;;;;;;5075751;28;20020;-80
2022/10/19 03:52:21;;;;;;;17.75;8.73;;;16.30;99.90;;;;;;5093319;28;20468;-79
2022/10/19 03:54:49;;;;;;;15.73;8.05;;;16.20;99.90;;;;;;5093252;28;20113;-79
2022/10/19 03:57:15;;;;;;;15.82;8.00;;;16.20;99.90;;;;;;5093590;28;20465;-80
2022/10/19 03:59:41;;;;;;;15.40;8.82;;;16.20;99.90;;;;;;5092839;28;20103;-80
2022/10/19 04:02:06;;;;;;;17.38;8.95;;;16.20;99.90;;;;;;5075329;28;20028;-79
2022/10/19 04:04:32;;;;;;;14.50;7.85;;;16.20;99.90;;;;;;5075123;28;20028;-79
2022/10/19 04:06:58;;;;;;;19.45;9.18;;;16.20;99.90;;;;;;5075789;28;20054;-78
2022/10/19 04:09:23;;;;;;;21.95;8.65;;;16.20;99.90;;;;;;5075327;28;20078;-80
2022/10/19 04:11:49;;;;;;;15.63;8.40;;;16.20;99.90;;;;;;5075703;28;20057;-79
2022/10/19 04:14:16;;;;;;;16.45;8.20;;;16.10;99.90;;;;;;5075779;28;20070;-80
2022/10/19 04:16:42;;;;;;;17.50;8.20;;;16.10;99.90;;;;;;5075308;28;20021;-80
2022/10/19 04:19:12;;;;;;;16.33;8.05;;;16.10;99.90;;;;;;5075884;28;20030;-79
2022/10/19 04:21:39;;;;;;;16.92;8.70;;;16.10;99.90;;;;;;5074698;28;20070;-80
2022/10/19 04:24:08;;;;;;;20.05;8.90;;;16.10;99.90;;;;;;5075173;28;20039;-79
2022/10/19 04:26:37;;;;;;;16.00;8.55;;;16.10;99.90;;;;;;5071473;28;20056;-79
2022/10/19 04:29:02;;;;;;;19.42;8.20;;;16.10;99.90;;;;;;5071802;28;20028;-79
2022/10/19 04:31:28;;;;;;;18.80;9.23;;;16.10;99.90;;;;;;5071674;28;20024;-80
2022/10/19 04:33:55;;;;;;;18.20;8.38;;;16.00;99.90;;;;;;5071811;28;20464;-78
2022/10/19 04:36:21;;;;;;;19.17;8.60;;;16.10;99.90;;;;;;5071789;28;20112;-82
2022/10/19 04:38:46;;;;;;;20.42;9.13;;;16.10;99.90;;;;;;5071945;28;20054;-79
2022/10/19 04:41:18;;;;;;;18.63;8.25;;;16.00;99.90;;;;;;5072020;28;20021;-80
2022/10/19 04:43:45;;;;;;;18.95;8.85;;;16.00;99.90;;;;;;5071307;28;20130;-79
2022/10/19 04:46:16;;;;;;;20.70;9.13;;;16.00;99.90;;;;;;5072026;28;20052;-79
2022/10/19 04:48:42;;;;;;;19.17;9.40;;;16.00;99.90;;;;;;5071432;28;20028;-80
2022/10/19 04:51:08;;;;;;;20.58;9.20;;;16.00;99.90;;;;;;5072991;28;20047;-80
2022/10/19 04:53:36;;;;;;;19.15;8.95;;;16.00;99.90;;;;;;5071319;28;20029;-80
2022/10/19 04:56:12;;;;;;;23.13;10.02;;;15.90;99.90;;;;;;5071755;28;20060;-79
2022/10/19 04:58:38;;;;;;;18.77;9.05;;;16.00;99.90;;;;;;5071634;28;20025;-79
2022/10/19 05:01:09;;;;;;;22.88;10.27;;;15.90;99.90;;;;;;5071793;28;20211;-79
2022/10/19 05:03:34;;;;;;;19.92;9.18;;;15.90;99.90;;;;;;5071061;28;20033;-80
2022/10/19 05:06:00;;;;;;;18.83;8.90;;;15.90;99.90;;;;;;5074395;28;20040;-79
2022/10/19 05:08:26;;;;;;;22.80;9.35;;;15.90;99.90;;;;;;5074537;28;20180;-80
2022/10/19 05:10:51;;;;;;;20.88;9.48;;;15.90;99.90;;;;;;5076025;28;20062;-80
2022/10/19 05:13:17;;;;;;;20.85;9.98;;;15.90;99.90;;;;;;5075226;28;20034;-80
2022/10/19 05:15:42;;;;;;;20.60;9.88;;;15.80;99.90;;;;;;5074517;28;20108;-80
2022/10/19 05:18:08;;;;;;;20.77;9.60;;;15.80;99.90;;;;;;5074773;28;20407;-80
2022/10/19 05:20:33;;;;;;;19.38;9.07;;;15.80;99.90;;;;;;5074447;28;20024;-79
2022/10/19 05:22:59;;;;;;;21.45;9.65;;;15.80;99.90;;;;;;5076393;28;20572;-80
2022/10/19 05:25:25;;;;;;;16.40;9.15;;;15.80;99.90;;;;;;5074241;28;20024;-83
2022/10/19 05:27:52;;;;;;;18.60;8.65;;;15.80;99.90;;;;;;5074749;28;20143;-79
2022/10/19 05:30:20;;;;;;;16.98;9.02;;;15.80;99.90;;;;;;5074975;28;20462;-79
2022/10/19 05:32:46;;;;;;;19.83;9.10;;;15.80;99.90;;;;;;5074001;28;20031;-79
2022/10/19 05:35:11;;;;;;;16.98;8.93;;;15.80;99.90;;;;;;5074387;28;20444;-80
2022/10/19 05:37:37;;;;;;;18.08;9.00;;;15.80;99.90;;;;;;5075271;28;20097;-79
2022/10/19 05:40:03;;;;;;;16.70;8.60;;;15.80;99.90;;;;;;5074577;28;20021;-79
2022/10/19 05:42:28;;;;;;;17.42;9.05;;;15.70;99.90;;;;;;5073986;28;20089;-79
2022/10/19 05:44:54;;;;;;;17.73;8.80;;;15.70;99.90;;;;;;5074133;28;20120;-79
2022/10/19 05:47:20;;;;;;;20.08;9.55;;;15.70;99.90;;;;;;5075728;28;20079;-79
2022/10/19 05:49:46;;;;;;;18.58;9.48;;;15.70;99.90;;;;;;5073567;28;20025;-79
2022/10/19 05:52:12;;;;;;;17.67;8.82;;;15.70;99.90;;;;;;5074254;28;20111;-79
2022/10/19 05:54:38;;;;;;;15.10;8.82;;;15.70;99.90;;;;;;5073804;28;20135;-79
2022/10/19 05:57:03;;;;;;;19.15;9.00;;;15.70;99.90;;;;;;5074263;28;20032;-79
2022/10/19 05:59:29;;;;;;;14.38;7.68;;;15.70;99.90;;;;;;5073945;28;20024;-80
2022/10/19 06:01:55;;;;;;;17.23;8.10;;;15.60;99.90;;;;;;5074525;28;20025;-80
2022/10/19 06:04:20;;;;;;;15.00;8.57;;;15.70;99.90;;;;;;5075452;28;20040;-80
2022/10/19 06:06:46;;;;;;;12.32;7.60;;;15.70;99.90;;;;;;5074137;28;20112;-80
2022/10/19 06:09:12;;;;;;;13.20;7.60;;;15.70;99.90;;;;;;5074407;28;20028;-80
2022/10/19 06:11:39;;;;;;;14.13;7.78;;;15.70;99.90;;;;;;5074646;28;20036;-79
2022/10/19 06:14:09;;;;;;;14.40;8.20;;;15.70;99.90;;;;;;5074019;28;20394;-80
2022/10/19 06:16:35;;;;;;;13.43;8.02;;;15.70;99.90;;;;;;5072919;28;20024;-80
2022/10/19 06:19:01;;;;;;;14.20;7.55;;;15.70;99.90;;;;;;5073803;28;20082;-80
2022/10/19 06:21:28;;;;;;;13.48;7.78;;;15.70;99.90;;;;;;5073705;28;20484;-81
2022/10/19 06:24:01;;;;;;;14.98;7.85;;;15.70;99.90;;;;;;5073756;28;20032;-80
2022/10/19 06:26:28;;;;;;;12.57;7.13;;;15.70;99.90;;;;;;5073450;28;20474;-81
2022/10/19 06:28:56;;;;;;;15.07;7.45;;;15.70;99.90;;;;;;5073474;28;20081;-80
2022/10/19 06:31:22;;;;;;;12.10;7.15;;;15.70;99.90;;;;;;5073712;28;20058;-80
2022/10/19 06:33:47;;;;;;;13.15;7.07;;;15.70;99.90;;;;;;5073090;28;20067;-80
2022/10/19 06:36:16;;;;;;;20.60;10.30;;;15.70;99.90;;;;;;5073494;28;20119;-81
2022/10/19 06:38:42;;;;;;;18.20;8.68;;;15.70;99.90;;;;;;5074160;28;20525;-80
2022/10/19 06:41:08;;;;;;;14.60;7.82;;;15.70;99.90;;;;;;5074006;28;20123;-80
2022/10/19 06:43:34;;;;;;;17.08;7.68;;;15.80;99.90;;;;;;5073372;28;20117;-81
2022/10/19 06:46:12;;;;;;;13.05;7.25;;;15.80;99.90;;;;;;5073854;28;20182;-81
2022/10/19 06:48:38;;;;;;;15.27;7.22;;;15.80;99.90;;;;;;5073168;28;20056;-80
2022/10/19 06:51:06;;;;;;;14.65;6.68;;;15.80;99.90;;;;;;5073421;28;20415;-80
2022/10/19 06:53:33;;;;;;;12.90;6.78;;;15.80;99.90;;;;;;5072956;28;20477;-80
2022/10/19 06:56:00;;;;;;;12.80;7.05;;;15.80;99.90;;;;;;5074861;28;20024;-80
2022/10/19 06:58:25;;;;;;;13.32;7.00;;;15.80;99.90;;;;;;5073344;28;20476;-80
2022/10/19 07:00:56;;;;;;;15.95;7.28;;;15.80;99.90;;;;;;5072582;28;20024;-78
2022/10/19 07:03:23;;;;;;;14.35;6.93;;;15.90;99.90;;;;;;5072895;28;20370;-78
2022/10/19 07:05:57;;;;;;;13.02;6.97;;;15.90;99.90;;;;;;5072256;28;20020;-78
2022/10/19 07:08:24;;;;;;;14.35;7.07;;;15.90;99.90;;;;;;5072719;28;20025;-78
2022/10/19 07:10:57;;;;;;;13.90;6.57;;;15.90;99.90;;;;;;5072962;28;20488;-78
2022/10/19 07:13:24;;;;;;;14.38;6.68;;;15.90;99.90;;;;;;5073938;28;20032;-78
2022/10/19 07:16:04;;;;;;;14.15;7.20;;;15.90;99.90;;;;;;5072171;28;20024;-78
2022/10/19 07:18:30;;;;;;;13.35;6.85;;;15.90;99.90;;;;;;5072585;28;20056;-83
2022/10/19 07:21:04;;;;;;;15.85;7.35;;;15.90;99.90;;;;;;5072822;28;20056;-80
2022/10/19 07:23:31;;;;;;;15.18;6.53;;;16.00;99.90;;;;;;5072360;28;20056;-83
2022/10/19 07:26:00;;;;;;;14.18;6.85;;;15.90;99.90;;;;;;5072779;28;20028;-79
2022/10/19 07:28:27;;;;;;;16.13;7.07;;;16.00;99.90;;;;;;5076014;28;20028;-79
2022/10/19 07:30:52;;;;;;;13.68;6.47;;;15.90;99.90;;;;;;5075250;28;20024;-79
2022/10/19 07:33:18;;;;;;;12.07;6.45;;;16.00;99.90;;;;;;5075679;28;20162;-79
2022/10/19 07:35:43;;;;;;;12.85;6.47;;;16.00;99.90;;;;;;5075444;28;20118;-79
2022/10/19 07:38:09;;;;;;;12.60;6.43;;;16.10;99.90;;;;;;5075521;28;20024;-79
2022/10/19 07:40:35;;;;;;;13.02;6.78;;;16.20;99.90;;;;;;5093174;28;20040;-80
2022/10/19 07:43:01;;;;;;;12.35;6.55;;;16.10;99.90;;;;;;5075870;28;20035;-79
2022/10/19 07:45:26;;;;;;;14.20;5.60;;;16.20;99.90;;;;;;5075731;28;20372;-80
2022/10/19 07:47:52;;;;;;;13.27;6.38;;;16.10;99.90;;;;;;5075136;28;20050;-80
2022/10/19 07:50:17;;;;;;;14.73;7.28;;;16.10;99.90;;;;;;5075879;28;20024;-80
2022/10/19 07:52:43;;;;;;;13.95;6.75;;;16.10;99.90;;;;;;5075779;28;20056;-80
2022/10/19 07:55:09;;;;;;;17.23;7.03;;;16.10;99.90;;;;;;5075666;28;20043;-80
2022/10/19 07:57:35;;;;;;;14.55;6.50;;;16.10;99.90;;;;;;5075360;28;20086;-81
2022/10/19 08:00:01;;;;;;;15.00;6.72;;;16.10;99.90;;;;;;5076131;28;20031;-79
2022/10/19 08:02:26;;;;;;;19.00;7.40;;;16.10;99.90;;;;;;5075837;28;20024;-79
2022/10/19 08:04:52;;;;;;;15.95;7.80;;;16.10;99.90;;;;;;5075264;28;20404;-80
2022/10/19 08:07:17;;;;;;;13.57;7.20;;;16.20;99.90;;;;;;5075985;28;20066;-80
2022/10/19 08:09:43;;;;;;;16.05;7.70;;;16.20;99.90;;;;;;5074976;28;20368;-81
2022/10/19 08:12:09;;;;;;;16.58;7.85;;;16.20;99.90;;;;;;5075950;28;20032;-79
2022/10/19 08:14:34;;;;;;;15.57;7.57;;;16.20;99.90;;;;;;5074450;28;20032;-81
2022/10/19 08:17:01;;;;;;;12.20;6.43;;;16.20;99.90;;;;;;5075258;28;20210;-79
2022/10/19 08:19:27;;;;;;;14.18;6.97;;;16.20;99.90;;;;;;5081677;28;20461;-77
2022/10/19 08:21:52;;;;;;;15.02;6.65;;;16.30;99.90;;;;;;5113053;28;20031;-78
2022/10/19 08:24:19;;;;;;;12.60;6.70;;;16.30;99.90;;;;;;5095188;28;20028;-78
2022/10/19 08:26:45;;;;;;;13.55;7.25;;;16.40;99.90;;;;;;5090896;28;20052;-78
2022/10/19 08:29:13;;;;;;;14.23;7.00;;;16.40;99.90;;;;;;5091818;28;20496;-79
2022/10/19 08:31:40;;;;;;;12.00;6.55;;;16.40;99.90;;;;;;5091118;28;20028;-79
2022/10/19 08:34:06;;;;;;;11.18;6.32;;;16.50;99.90;;;;;;5091905;28;20453;-80
2022/10/19 08:36:34;;;;;;;13.38;7.47;;;16.50;99.90;;;;;;5092702;28;20047;-79
2022/10/19 08:39:01;;;;;;;11.93;6.35;;;16.50;99.90;;;;;;5091498;28;20027;-79
2022/10/19 08:41:35;;;;;;;11.15;6.03;;;16.50;99.90;;;;;;5094502;28;20017;-79
2022/10/19 08:44:22;;;;;;;11.77;6.40;;;16.50;99.90;;;;;;5097192;28;20066;-80
2022/10/19 08:47:10;;;;;;;11.73;6.55;;;16.60;99.90;;;;;;5075510;28;20531;-80
2022/10/19 08:49:36;;;;;;;10.82;5.63;;;16.50;99.90;;;;;;5034676;28;20029;-81
2022/10/19 08:52:18;;;;;;;11.82;6.30;;;16.50;99.90;;;;;;5076015;28;20032;-80
2022/10/19 08:54:56;;;;;;;9.52;5.80;;;16.60;99.90;;;;;;5087440;28;20040;-83
2022/10/19 08:57:34;;;;;;;14.73;6.43;;;16.50;99.90;;;;;;5081571;28;20036;-82
2022/10/19 09:00:28;;;;;;;16.70;6.35;;;16.50;99.90;;;;;;5085151;28;20083;-79
2022/10/19 09:02:59;;;;;;;11.40;5.97;;;16.60;99.90;;;;;;5094416;28;20035;-79
2022/10/19 09:05:37;;;;;;;;;;;16.50;99.90;;;;;;5095247;28;20020;-79
2022/10/19 09:08:03;;;;;;;11.82;6.43;;;16.60;99.90;;;;;;5079133;28;19907;-78
2022/10/19 09:10:38;;;;;;;10.02;5.55;;;16.60;99.90;;;;;;5087204;28;20035;-79
2022/10/19 09:13:35;;;;;;;9.48;5.53;;;16.50;99.90;;;;;;5087861;28;20346;-79
2022/10/19 09:16:03;;;;;;;14.27;5.95;;;16.60;99.90;;;;;;5085155;28;20047;-78
2022/10/19 09:18:31;;;;;;;8.23;5.22;;;16.60;99.90;;;;;;5074159;28;20473;-80
2022/10/19 09:21:19;;;;;;;9.23;5.20;;;16.60;99.90;;;;;;5085146;28;20027;-78
2022/10/19 09:23:54;;;;;;;9.80;5.10;;;16.70;99.90;;;;;;5083489;28;20086;-80
2022/10/19 09:26:24;;;;;;;10.82;5.65;;;16.70;99.90;;;;;;5091935;28;20056;-79
2022/10/19 09:28:54;;;;;;;10.52;5.30;;;16.70;99.90;;;;;;5093427;28;20024;-79
2022/10/19 09:31:41;;;;;;;13.00;5.45;;;16.70;99.90;;;;;;5093868;28;20526;-80
2022/10/19 09:34:19;;;;;;;10.82;5.47;;;16.80;99.90;;;;;;5091322;28;20123;-79
2022/10/19 09:36:52;;;;;;;10.18;5.38;;;16.80;99.90;;;;;;5094416;28;20028;-77
2022/10/19 09:39:19;;;;;;;10.55;5.57;;;16.80;99.90;;;;;;5093679;28;20111;-85
2022/10/19 09:41:48;;;;;;;10.65;5.47;;;16.90;99.90;;;;;;5093458;28;20111;-84
2022/10/19 09:44:14;;;;;;;8.90;4.85;;;17.00;99.90;;;;;;5093813;28;20024;-84
2022/10/19 09:47:01;;;;;;;9.93;5.35;;;17.00;99.90;;;;;;5093066;28;20119;-77
2022/10/19 09:49:47;;;;;;;8.48;5.03;;;17.10;99.90;;;;;;5091944;28;20032;-80
2022/10/19 09:52:34;;;;;;;8.85;5.05;;;17.20;99.90;;;;;;5091725;28;20035;-78
2022/10/19 09:55:18;;;;;;;10.90;5.03;;;17.20;99.90;;;;;;5091717;28;20047;-79
2022/10/19 09:57:49;;;;;;;10.55;4.88;;;17.20;99.90;;;;;;5092379;28;20032;-79
2022/10/19 10:00:22;;;;;;;9.17;4.93;;;17.30;99.90;;;;;;5092692;28;20095;-78
2022/10/19 10:02:53;;;;;;;8.05;4.30;;;17.20;99.90;;;;;;5091564;28;20024;-77
2022/10/19 10:05:28;;;;;;;9.63;4.85;;;17.30;99.90;;;;;;5091584;28;20024;-77
2022/10/19 10:07:54;;;;;;;8.82;4.93;;;17.20;99.90;;;;;;5091117;28;20036;-76
2022/10/19 10:10:28;;;;;;;8.57;4.60;;;17.20;99.90;;;;;;5087130;28;20028;-76
2022/10/19 10:12:54;;;;;;;7.80;4.63;;;17.20;99.90;;;;;;5092537;28;20035;-76
2022/10/19 10:15:25;;;;;;;10.02;5.07;;;17.20;99.90;;;;;;5087572;28;20032;-76
2022/10/19 10:17:51;;;;;;;;;;;17.20;99.90;;;;;;5092367;28;20055;-80
2022/10/19 10:20:27;;;;;;;9.50;5.35;;;17.20;99.90;;;;;;5092822;28;20368;-77
2022/10/19 10:23:03;;;;;;;8.27;5.00;;;17.20;99.90;;;;;;5091509;28;20369;-77
2022/10/19 10:25:34;;;;;;;8.23;4.65;;;17.20;99.90;;;;;;5091983;28;20027;-78
2022/10/19 10:28:15;;;;;;;8.90;4.72;;;17.20;99.90;;;;;;5088472;28;20067;-77
2022/10/19 10:30:44;;;;;;;8.63;4.80;;;17.20;99.90;;;;;;5091802;28;20111;-78
2022/10/19 10:33:24;;;;;;;6.95;4.40;;;17.30;99.90;;;;;;5090977;28;20157;-76
2022/10/19 10:35:52;;;;;;;8.23;4.60;;;17.30;99.90;;;;;;5091166;28;20107;-76
2022/10/19 10:38:26;;;;;;;8.57;4.88;;;17.20;99.90;;;;;;5091198;28;20024;-76
2022/10/19 10:41:16;;;;;;;7.00;4.68;;;17.30;99.90;;;;;;5089898;28;20062;-77
2022/10/19 10:44:01;;;;;;;6.57;4.50;;;17.40;99.90;;;;;;5090331;28;20039;-75
2022/10/19 10:46:35;;;;;;;8.10;4.30;;;17.50;99.90;;;;;;5091185;28;20139;-77
2022/10/19 10:49:05;;;;;;;7.50;4.45;;;17.60;99.90;;;;;;5090278;28;20028;-76
2022/10/19 10:51:38;;;;;;;6.68;4.35;;;17.70;99.90;;;;;;5090055;28;20363;-78
2022/10/19 10:54:22;;;;;;;6.47;4.13;;;17.70;99.90;;;;;;5090268;28;20035;-75
2022/10/19 10:57:17;;;;;;;10.45;4.80;;;17.70;99.90;;;;;;5090448;28;20119;-76
2022/10/19 10:59:58;;;;;;;10.85;4.80;;;17.60;99.90;;;;;;5088604;28;20469;-77
2022/10/19 11:02:27;;;;;;;9.15;4.57;;;17.60;99.90;;;;;;5090901;28;20024;-77
2022/10/19 11:05:02;;;;;;;10.60;5.13;;;17.60;99.90;;;;;;5089275;28;20032;-77
2022/10/19 11:07:30;;;;;;;7.60;4.00;;;17.60;99.90;;;;;;5090405;28;20020;-77
2022/10/19 11:09:58;;;;;;;9.70;4.60;;;17.70;99.90;;;;;;5089758;28;20499;-77
2022/10/19 11:12:38;;;;;;;7.47;4.35;;;17.80;99.90;;;;;;5090970;28;20020;-77
2022/10/19 11:15:26;;;;;;;6.38;3.67;;;17.90;99.90;;;;;;5089725;28;20442;-76
2022/10/19 11:18:10;;;;;;;6.65;3.88;;;18.00;99.90;;;;;;5089488;28;20020;-80
2022/10/19 11:20:48;;;;;;;6.47;3.72;;;18.10;99.90;;;;;;5091165;28;20127;-81
2022/10/19 11:23:25;;;;;;;6.18;3.30;;;18.20;99.90;;;;;;5091244;28;20046;-81
2022/10/19 11:26:29;;;;;;;4.55;3.22;;;18.30;99.90;;;;;;5089547;28;20060;-81
2022/10/19 11:29:30;;;;;;;6.80;2.85;;;18.40;99.90;;;;;;5091120;28;20040;-80
2022/10/19 11:31:56;;;;;;;4.07;2.55;;;18.60;99.90;;;;;;5090491;28;20020;-79
2022/10/19 11:34:55;;;;;;;5.30;2.70;;;18.70;99.90;;;;;;5090967;28;20077;-80
2022/10/19 11:37:57;;;;;;;4.75;2.80;;;18.70;99.90;;;;;;5091422;28;20028;-78
2022/10/19 11:40:28;;;;;;;;;;;18.70;99.90;;;;;;5091092;28;20085;-78
2022/10/19 11:43:03;;;;;;;4.43;2.10;;;18.70;99.90;;;;;;5089182;28;19904;-80
2022/10/19 11:45:47;;;;;;;3.33;2.03;;;18.70;99.90;;;;;;5091758;28;20028;-81
2022/10/19 11:48:34;;;;;;;5.97;2.90;;;18.70;99.90;;;;;;5089785;28;20054;-77
2022/10/19 11:51:10;;;;;;;6.55;2.60;;;18.70;99.90;;;;;;5089122;28;20035;-77
2022/10/19 11:53:59;;;;;;;3.85;2.42;;;18.70;99.90;;;;;;5091082;28;20094;-77
2022/10/19 11:56:46;;;;;;;4.00;2.35;;;18.70;99.90;;;;;;5089460;28;20469;-76
2022/10/19 11:59:26;;;;;;;3.42;2.53;;;18.70;99.90;;;;;;5088299;28;20028;-76
2022/10/19 12:02:01;;;;;;;3.45;1.73;;;18.60;99.90;;;;;;5087328;28;20069;-75
2022/10/19 12:04:29;;;;;;;3.13;1.77;;;18.60;99.90;;;;;;5089778;28;20030;-77
2022/10/19 12:07:20;;;;;;;3.35;1.55;;;18.60;99.90;;;;;;5086249;28;20058;-77
2022/10/19 12:09:59;;;;;;;6.10;2.00;;;18.70;99.90;;;;;;5088787;28;20381;-75
2022/10/19 12:12:34;;;;;;;8.45;2.30;;;18.90;99.90;;;;;;5090148;28;20020;-75
2022/10/19 12:15:22;;;;;;;4.25;2.55;;;18.90;99.90;;;;;;5089331;28;20137;-78
2022/10/19 12:17:50;;;;;;;3.22;2.28;;;19.00;99.90;;;;;;5091599;28;20775;-76
2022/10/19 12:20:34;;;;;;;2.80;2.13;;;19.00;99.90;;;;;;5096053;28;20085;-78
2022/10/19 12:23:06;;;;;;;4.47;2.70;;;19.10;99.90;;;;;;5093358;28;20464;-77
2022/10/19 12:25:33;;;;;;;4.75;2.53;;;19.10;99.90;;;;;;5091611;28;20035;-75
2022/10/19 12:27:59;;;;;;;3.30;2.35;;;19.00;99.90;;;;;;5103001;28;20052;-74
2022/10/19 12:30:24;;;;;;;3.78;2.60;;;18.90;99.90;;;;;;5087864;28;20032;-75
2022/10/19 12:33:26;;;;;;;6.57;2.63;;;18.90;99.90;;;;;;5086390;28;20032;-75
2022/10/19 12:36:12;;;;;;;2.40;2.00;;;18.80;99.90;;;;;;5088280;28;20361;-75
2022/10/19 12:38:41;;;;;;;4.38;2.50;;;18.80;99.90;;;;;;5088622;28;20084;-77
2022/10/19 12:41:14;;;;;;;5.03;2.63;;;18.80;99.90;;;;;;5086360;28;20028;-77
2022/10/19 12:43:43;;;;;;;2.80;2.25;;;18.80;99.90;;;;;;5086384;28;20038;-77
2022/10/19 12:46:24;;;;;;;6.18;2.00;;;18.70;99.90;;;;;;5104537;28;20028;-75
2022/10/19 12:49:24;;;;;;;4.47;2.28;;;18.70;99.90;;;;;;5086476;28;20043;-76
2022/10/19 12:51:51;;;;;;;2.17;1.92;;;18.70;99.90;;;;;;5080688;28;20377;-76
2022/10/19 12:54:22;;;;;;;2.72;1.98;;;18.70;99.90;;;;;;5085207;28;20142;-72
2022/10/19 12:56:50;;;;;;;2.47;2.00;;;18.70;99.90;;;;;;5085682;28;20036;-72
2022/10/19 12:59:31;;;;;;;4.00;1.90;;;19.10;99.90;;;;;;5085525;28;20036;-73